Hlavní strana
METAR-TAF:

METAR-TAF

Letiště :

Fort-de-France, Martinik

zeměpisná šířka: 14-36N, zeměpisná délka: 061-00W, výška: 5 m

Aktuální stav počasí

Zpráva byla vytvořena před 25 minutami, v 20:30 UTC
Východní vítr 16 kt
Teplota 29°C
Vlhkost vzduchu 74%
Tlak 1014 hPa
Viditelnost 10 km a více
Skoro jasno ve výšce 2100 ft
Polojasno ve výšce 2600 ft
Oblačno až skoro zataženo ve výšce 4200 ft

METAR: TFFF 192030Z AUTO 10016KT 9999 FEW021 SCT026 BKN042 29/24 Q1014 TEMPO 12015G25KT

Čas: 16:55 (20:55 UTC)

Předpověď počasí

Zpráva byla vytvořena před 3 hodinami a 55 minutami, v 17:00 UTC
Předpověď platná od 19 v 18 UTC do 20 v 18 UTC
Východní vítr 10 kt
Viditelnost 10 km a více
Skoro jasno ve výšce 2000 ft
Polojasno ve výšce 3000 ft
Dočasný
od 19 v 18 UTC do 19 v 22 UTC
Východojihovýchodní vítr 15 kt s nárazy do 25 kt

TAF: TFFF 191700Z 1918/2018 10010KT 9999 FEW020 SCT030 TEMPO 1918/1922 12015G25KT

Stav a předpovědi počasí z více než 4 000 letišť (zprávy METAR a TAF).

Červené a žluté tečky na mapě představují dostupné meteorologické stanice.

Když kurzor umístíte na tečku, zobrazí se název stanice.

Pak kliknutím zobrazíte stav a předpověď počasí.

Chcete-li změnit mapu, kliknutím na zelené tlačítko se znaménkem +mapu přiblížíte, kliknutím na zelené tlačítko se znaménkem – mapu oddálíte a kliknutím na zelené šipky přejdete na sousední mapy.


METAR-TAF: